sensor_id;sensor_type;location;lat;lon;timestamp;pressure;altitude;pressure_sealevel;temperature;humidity
5146;BME280;2591;48.144;15.152;2023-04-21T00:01:36;76068.03;;;-144.65;100.00
5146;BME280;2591;48.144;15.152;2023-04-21T00:04:04;76078.22;;;-144.65;100.00
5146;BME280;2591;48.144;15.152;2023-04-21T00:06:33;76082.28;;;-144.65;100.00
5146;BME280;2591;48.144;15.152;2023-04-21T00:09:02;76090.44;;;-144.65;100.00
5146;BME280;2591;48.144;15.152;2023-04-21T00:11:31;76094.53;;;-144.65;100.00
5146;BME280;2591;48.144;15.152;2023-04-21T00:13:59;76102.69;;;-144.65;100.00
5146;BME280;2591;48.144;15.152;2023-04-21T00:16:28;76112.88;;;-144.65;100.00
5146;BME280;2591;48.144;15.152;2023-04-21T00:18:56;76123.06;;;-144.65;100.00
5146;BME280;2591;48.144;15.152;2023-04-21T00:21:23;76123.06;;;-144.65;100.00
5146;BME280;2591;48.144;15.152;2023-04-21T00:23:52;76123.06;;;-144.65;100.00
5146;BME280;2591;48.144;15.152;2023-04-21T00:26:20;76127.16;;;-144.65;100.00
5146;BME280;2591;48.144;15.152;2023-04-21T00:28:48;76135.31;;;-144.65;100.00
5146;BME280;2591;48.144;15.152;2023-04-21T00:31:15;76129.19;;;-144.65;100.00
5146;BME280;2591;48.144;15.152;2023-04-21T00:33:45;76143.47;;;-144.65;100.00
5146;BME280;2591;48.144;15.152;2023-04-21T00:36:12;76137.34;;;-144.65;100.00
5146;BME280;2591;48.144;15.152;2023-04-21T00:38:40;76143.47;;;-144.65;100.00
5146;BME280;2591;48.144;15.152;2023-04-21T00:41:08;76141.41;;;-144.65;100.00
5146;BME280;2591;48.144;15.152;2023-04-21T00:43:36;76143.47;;;-144.65;100.00
5146;BME280;2591;48.144;15.152;2023-04-21T00:46:04;76145.50;;;-144.65;100.00
5146;BME280;2591;48.144;15.152;2023-04-21T00:48:31;76143.47;;;-144.65;100.00
5146;BME280;2591;48.144;15.152;2023-04-21T00:51:01;76147.53;;;-144.65;100.00
5146;BME280;2591;48.144;15.152;2023-04-21T00:53:28;76147.53;;;-144.65;100.00
5146;BME280;2591;48.144;15.152;2023-04-21T00:55:56;76149.56;;;-144.65;100.00
5146;BME280;2591;48.144;15.152;2023-04-21T00:58:24;76145.50;;;-144.65;100.00
5146;BME280;2591;48.144;15.152;2023-04-21T01:00:52;76145.50;;;-144.65;100.00
5146;BME280;2591;48.144;15.152;2023-04-21T01:03:20;76143.47;;;-144.65;100.00
5146;BME280;2591;48.144;15.152;2023-04-21T01:05:48;76143.47;;;-144.65;100.00
5146;BME280;2591;48.144;15.152;2023-04-21T01:08:17;76147.53;;;-144.65;100.00
5146;BME280;2591;48.144;15.152;2023-04-21T01:10:45;76147.53;;;-144.65;100.00
5146;BME280;2591;48.144;15.152;2023-04-21T01:13:13;76147.53;;;-144.65;100.00
5146;BME280;2591;48.144;15.152;2023-04-21T01:15:40;76151.63;;;-144.65;100.00
5146;BME280;2591;48.144;15.152;2023-04-21T01:18:08;76155.69;;;-144.65;100.00
5146;BME280;2591;48.144;15.152;2023-04-21T01:20:37;76161.81;;;-144.65;100.00
5146;BME280;2591;48.144;15.152;2023-04-21T01:23:06;76161.81;;;-144.65;100.00
5146;BME280;2591;48.144;15.152;2023-04-21T01:25:34;76151.63;;;-144.65;100.00
5146;BME280;2591;48.144;15.152;2023-04-21T01:28:02;76161.81;;;-144.65;100.00
5146;BME280;2591;48.144;15.152;2023-04-21T01:30:30;76159.78;;;-144.65;100.00
5146;BME280;2591;48.144;15.152;2023-04-21T01:32:58;76157.72;;;-144.65;100.00
5146;BME280;2591;48.144;15.152;2023-04-21T01:35:26;76147.53;;;-144.65;100.00
5146;BME280;2591;48.144;15.152;2023-04-21T01:37:54;76143.47;;;-144.65;100.00
5146;BME280;2591;48.144;15.152;2023-04-21T01:40:23;76139.38;;;-144.65;100.00
5146;BME280;2591;48.144;15.152;2023-04-21T01:42:51;76127.16;;;-144.65;100.00
5146;BME280;2591;48.144;15.152;2023-04-21T01:45:19;76121.03;;;-144.65;100.00
5146;BME280;2591;48.144;15.152;2023-04-21T01:47:47;76123.06;;;-144.65;100.00
5146;BME280;2591;48.144;15.152;2023-04-21T01:50:15;76127.16;;;-144.65;100.00
5146;BME280;2591;48.144;15.152;2023-04-21T01:52:43;76121.03;;;-144.65;100.00
5146;BME280;2591;48.144;15.152;2023-04-21T01:55:11;76123.06;;;-144.65;100.00
5146;BME280;2591;48.144;15.152;2023-04-21T01:57:41;76127.16;;;-144.65;100.00
5146;BME280;2591;48.144;15.152;2023-04-21T02:00:10;76139.38;;;-144.65;100.00
5146;BME280;2591;48.144;15.152;2023-04-21T02:02:38;76143.47;;;-144.65;100.00
5146;BME280;2591;48.144;15.152;2023-04-21T02:05:07;76159.78;;;-144.65;100.00
5146;BME280;2591;48.144;15.152;2023-04-21T02:07:34;76161.81;;;-144.65;100.00
5146;BME280;2591;48.144;15.152;2023-04-21T02:10:02;76159.78;;;-144.65;100.00
5146;BME280;2591;48.144;15.152;2023-04-21T02:12:30;76167.94;;;-144.65;100.00
5146;BME280;2591;48.144;15.152;2023-04-21T02:14:59;76159.78;;;-144.65;100.00
5146;BME280;2591;48.144;15.152;2023-04-21T02:17:27;76159.78;;;-144.65;100.00
5146;BME280;2591;48.144;15.152;2023-04-21T02:19:56;76172.00;;;-144.65;100.00
5146;BME280;2591;48.144;15.152;2023-04-21T02:22:24;76182.19;;;-144.65;100.00
5146;BME280;2591;48.144;15.152;2023-04-21T02:24:51;76192.41;;;-144.65;100.00
5146;BME280;2591;48.144;15.152;2023-04-21T02:27:19;76192.41;;;-144.65;100.00
5146;BME280;2591;48.144;15.152;2023-04-21T02:29:47;76194.44;;;-144.65;100.00
5146;BME280;2591;48.144;15.152;2023-04-21T02:32:16;76202.59;;;-144.65;100.00
5146;BME280;2591;48.144;15.152;2023-04-21T02:34:51;76204.63;;;-144.65;100.00
5146;BME280;2591;48.144;15.152;2023-04-21T02:37:19;76216.84;;;-144.65;100.00
5146;BME280;2591;48.144;15.152;2023-04-21T02:39:47;76229.09;;;-144.65;100.00
5146;BME280;2591;48.144;15.152;2023-04-21T02:42:15;76231.13;;;-144.65;100.00
5146;BME280;2591;48.144;15.152;2023-04-21T02:44:43;76233.16;;;-144.65;100.00
5146;BME280;2591;48.144;15.152;2023-04-21T02:47:10;76237.25;;;-144.65;100.00
5146;BME280;2591;48.144;15.152;2023-04-21T02:49:41;76237.25;;;-144.65;100.00
5146;BME280;2591;48.144;15.152;2023-04-21T02:52:08;76237.25;;;-144.65;100.00
5146;BME280;2591;48.144;15.152;2023-04-21T02:54:36;76241.31;;;-144.65;100.00
5146;BME280;2591;48.144;15.152;2023-04-21T02:57:04;76245.41;;;-144.65;100.00
5146;BME280;2591;48.144;15.152;2023-04-21T02:59:32;76245.41;;;-144.65;100.00
5146;BME280;2591;48.144;15.152;2023-04-21T03:02:00;76251.53;;;-144.65;100.00
5146;BME280;2591;48.144;15.152;2023-04-21T03:04:28;76257.63;;;-144.65;100.00
5146;BME280;2591;48.144;15.152;2023-04-21T03:06:59;76247.44;;;-144.65;100.00
5146;BME280;2591;48.144;15.152;2023-04-21T03:09:27;76241.31;;;-144.65;100.00
5146;BME280;2591;48.144;15.152;2023-04-21T03:11:55;76235.22;;;-144.65;100.00
5146;BME280;2591;48.144;15.152;2023-04-21T03:14:23;76229.09;;;-144.65;100.00
5146;BME280;2591;48.144;15.152;2023-04-21T03:16:50;76235.22;;;-144.65;100.00
5146;BME280;2591;48.144;15.152;2023-04-21T03:19:18;76235.22;;;-144.65;100.00
5146;BME280;2591;48.144;15.152;2023-04-21T03:21:47;76243.38;;;-144.65;100.00
5146;BME280;2591;48.144;15.152;2023-04-21T03:24:16;76243.38;;;-144.65;100.00
5146;BME280;2591;48.144;15.152;2023-04-21T03:26:44;76245.41;;;-144.65;100.00
5146;BME280;2591;48.144;15.152;2023-04-21T03:29:12;76243.38;;;-144.65;100.00
5146;BME280;2591;48.144;15.152;2023-04-21T03:31:40;76241.31;;;-144.65;100.00
5146;BME280;2591;48.144;15.152;2023-04-21T03:34:08;76245.41;;;-144.65;100.00
5146;BME280;2591;48.144;15.152;2023-04-21T03:36:36;76241.31;;;-144.65;100.00
5146;BME280;2591;48.144;15.152;2023-04-21T03:39:04;76235.22;;;-144.65;100.00
5146;BME280;2591;48.144;15.152;2023-04-21T03:41:46;76245.41;;;-144.65;100.00
5146;BME280;2591;48.144;15.152;2023-04-21T03:44:14;76243.38;;;-144.65;100.00
5146;BME280;2591;48.144;15.152;2023-04-21T03:46:42;76229.09;;;-144.65;100.00
5146;BME280;2591;48.144;15.152;2023-04-21T03:49:10;76225.00;;;-144.65;100.00
5146;BME280;2591;48.144;15.152;2023-04-21T03:51:38;76212.78;;;-144.65;100.00
5146;BME280;2591;48.144;15.152;2023-04-21T03:54:06;76210.75;;;-144.65;100.00
5146;BME280;2591;48.144;15.152;2023-04-21T03:56:34;76212.78;;;-144.65;100.00
5146;BME280;2591;48.144;15.152;2023-04-21T03:59:03;76212.78;;;-144.65;100.00
5146;BME280;2591;48.144;15.152;2023-04-21T04:01:32;76212.78;;;-144.65;100.00
5146;BME280;2591;48.144;15.152;2023-04-21T04:04:00;76210.75;;;-144.65;100.00
5146;BME280;2591;48.144;15.152;2023-04-21T04:06:28;76212.78;;;-144.65;100.00
5146;BME280;2591;48.144;15.152;2023-04-21T04:08:57;76212.78;;;-144.65;100.00
5146;BME280;2591;48.144;15.152;2023-04-21T04:11:28;76212.78;;;-144.65;100.00
5146;BME280;2591;48.144;15.152;2023-04-21T04:13:56;76216.84;;;-144.65;100.00
5146;BME280;2591;48.144;15.152;2023-04-21T04:16:25;76237.25;;;-144.65;100.00
5146;BME280;2591;48.144;15.152;2023-04-21T04:18:54;76251.53;;;-144.65;100.00
5146;BME280;2591;48.144;15.152;2023-04-21T04:21:22;76255.59;;;-144.65;100.00
5146;BME280;2591;48.144;15.152;2023-04-21T04:23:50;76259.69;;;-144.65;100.00
5146;BME280;2591;48.144;15.152;2023-04-21T04:26:19;76253.56;;;-144.65;100.00
5146;BME280;2591;48.144;15.152;2023-04-21T04:28:48;76257.63;;;-144.65;100.00
5146;BME280;2591;48.144;15.152;2023-04-21T04:31:16;76247.44;;;-144.65;100.00
5146;BME280;2591;48.144;15.152;2023-04-21T04:33:45;76235.22;;;-144.65;100.00
5146;BME280;2591;48.144;15.152;2023-04-21T04:36:13;76229.09;;;-144.65;100.00
5146;BME280;2591;48.144;15.152;2023-04-21T04:38:40;76216.84;;;-144.65;100.00
5146;BME280;2591;48.144;15.152;2023-04-21T04:41:08;76214.81;;;-144.65;100.00
5146;BME280;2591;48.144;15.152;2023-04-21T04:43:38;76208.69;;;-144.65;100.00
5146;BME280;2591;48.144;15.152;2023-04-21T04:46:06;76204.63;;;-144.65;100.00
5146;BME280;2591;48.144;15.152;2023-04-21T04:48:35;76204.63;;;-144.65;100.00
5146;BME280;2591;48.144;15.152;2023-04-21T04:51:05;76202.59;;;-144.65;100.00
5146;BME280;2591;48.144;15.152;2023-04-21T04:53:33;76204.63;;;-144.65;100.00
5146;BME280;2591;48.144;15.152;2023-04-21T04:56:01;76200.56;;;-144.65;100.00
5146;BME280;2591;48.144;15.152;2023-04-21T04:58:29;76196.47;;;-144.65;100.00
5146;BME280;2591;48.144;15.152;2023-04-21T05:00:56;76172.00;;;-144.65;100.00
5146;BME280;2591;48.144;15.152;2023-04-21T05:03:24;76141.41;;;-144.65;100.00
5146;BME280;2591;48.144;15.152;2023-04-21T05:05:52;76110.84;;;-144.65;100.00
5146;BME280;2591;48.144;15.152;2023-04-21T05:08:23;76086.38;;;-144.65;100.00
5146;BME280;2591;48.144;15.152;2023-04-21T05:10:51;76074.16;;;-144.65;100.00
5146;BME280;2591;48.144;15.152;2023-04-21T05:13:18;76070.06;;;-144.65;100.00
5146;BME280;2591;48.144;15.152;2023-04-21T05:15:46;76066.00;;;-144.65;100.00
5146;BME280;2591;48.144;15.152;2023-04-21T05:18:14;76049.69;;;-144.65;100.00
5146;BME280;2591;48.144;15.152;2023-04-21T05:20:42;76039.47;;;-144.65;100.00
5146;BME280;2591;48.144;15.152;2023-04-21T05:23:09;76025.22;;;-144.65;100.00
5146;BME280;2591;48.144;15.152;2023-04-21T05:25:39;76012.97;;;-144.65;100.00
5146;BME280;2591;48.144;15.152;2023-04-21T05:28:06;75994.63;;;-144.65;100.00
5146;BME280;2591;48.144;15.152;2023-04-21T05:30:34;75986.47;;;-144.65;100.00
5146;BME280;2591;48.144;15.152;2023-04-21T05:33:02;75970.16;;;-144.65;100.00
5146;BME280;2591;48.144;15.152;2023-04-21T05:35:30;75959.97;;;-144.65;100.00
5146;BME280;2591;48.144;15.152;2023-04-21T05:37:58;75943.66;;;-144.65;100.00
5146;BME280;2591;48.144;15.152;2023-04-21T05:40:26;75925.31;;;-144.65;100.00
5146;BME280;2591;48.144;15.152;2023-04-21T05:42:55;75913.09;;;-144.65;100.00
5146;BME280;2591;48.144;15.152;2023-04-21T05:45:23;75894.75;;;-144.65;100.00
5146;BME280;2591;48.144;15.152;2023-04-21T05:47:51;75882.50;;;-144.65;100.00
5146;BME280;2591;48.144;15.152;2023-04-21T05:50:19;75866.19;;;-144.65;100.00
5146;BME280;2591;48.144;15.152;2023-04-21T05:52:47;75845.81;;;-144.65;100.00
5146;BME280;2591;48.144;15.152;2023-04-21T05:55:14;75833.56;;;-144.65;100.00
5146;BME280;2591;48.144;15.152;2023-04-21T05:57:42;75817.25;;;-144.65;100.00
5146;BME280;2591;48.144;15.152;2023-04-21T06:00:13;75805.03;;;-144.65;100.00
5146;BME280;2591;48.144;15.152;2023-04-21T06:02:41;75790.75;;;-144.65;100.00
5146;BME280;2591;48.144;15.152;2023-04-21T06:05:09;75768.34;;;-144.65;100.00
5146;BME280;2591;48.144;15.152;2023-04-21T06:07:37;75760.19;;;-144.65;100.00
5146;BME280;2591;48.144;15.152;2023-04-21T06:10:06;75739.81;;;-144.65;100.00
5146;BME280;2591;48.144;15.152;2023-04-21T06:12:34;75725.53;;;-144.65;100.00
5146;BME280;2591;48.144;15.152;2023-04-21T06:15:02;75707.19;;;-144.65;100.00
5146;BME280;2591;48.144;15.152;2023-04-21T06:17:32;75703.09;;;-144.65;100.00
5146;BME280;2591;48.144;15.152;2023-04-21T06:19:59;75680.69;;;-144.65;100.00
5146;BME280;2591;48.144;15.152;2023-04-21T06:22:27;75678.63;;;-144.65;96.24
5146;BME280;2591;48.144;15.152;2023-04-21T06:24:55;75662.34;;;-144.65;95.81
5146;BME280;2591;48.144;15.152;2023-04-21T06:27:26;75648.06;;;-144.65;94.73
5146;BME280;2591;48.144;15.152;2023-04-21T06:29:54;75641.94;;;-144.65;93.04
5146;BME280;2591;48.144;15.152;2023-04-21T06:32:22;75629.72;;;-144.65;93.68
5146;BME280;2591;48.144;15.152;2023-04-21T06:34:51;75609.34;;;-144.65;94.50
5146;BME280;2591;48.144;15.152;2023-04-21T06:37:19;75605.25;;;-144.65;92.58
5146;BME280;2591;48.144;15.152;2023-04-21T06:39:47;75586.91;;;-144.65;92.84
5146;BME280;2591;48.144;15.152;2023-04-21T06:42:15;75568.56;;;-144.65;90.75
5146;BME280;2591;48.144;15.152;2023-04-21T06:44:43;75556.34;;;-144.65;90.38
5146;BME280;2591;48.144;15.152;2023-04-21T06:47:11;75548.19;;;-144.65;89.17
5146;BME280;2591;48.144;15.152;2023-04-21T06:49:39;75533.91;;;-144.65;90.16
5146;BME280;2591;48.144;15.152;2023-04-21T06:52:08;75523.72;;;-144.65;90.20
5146;BME280;2591;48.144;15.152;2023-04-21T06:54:35;75511.47;;;-144.65;88.92
5146;BME280;2591;48.144;15.152;2023-04-21T06:57:03;75499.25;;;-144.65;89.32
5146;BME280;2591;48.144;15.152;2023-04-21T06:59:32;75491.09;;;-144.65;88.24
5146;BME280;2591;48.144;15.152;2023-04-21T07:02:00;75468.69;;;-144.65;90.03
5146;BME280;2591;48.144;15.152;2023-04-21T07:04:28;75464.59;;;-144.65;86.45
5146;BME280;2591;48.144;15.152;2023-04-21T07:06:57;75466.63;;;-144.65;85.73
5146;BME280;2591;48.144;15.152;2023-04-21T07:09:30;75454.41;;;-144.65;86.34
5146;BME280;2591;48.144;15.152;2023-04-21T07:11:59;75454.41;;;-144.65;83.79
5146;BME280;2591;48.144;15.152;2023-04-21T07:14:28;75446.25;;;-144.65;84.17
5146;BME280;2591;48.144;15.152;2023-04-21T07:16:56;75423.84;;;-144.65;84.61
5146;BME280;2591;48.144;15.152;2023-04-21T07:19:24;75407.53;;;-144.65;83.25
5146;BME280;2591;48.144;15.152;2023-04-21T07:21:52;75389.19;;;-144.65;80.76
5146;BME280;2591;48.144;15.152;2023-04-21T07:24:20;75362.69;;;-144.65;79.61
5146;BME280;2591;48.144;15.152;2023-04-21T07:26:49;75356.56;;;-144.65;77.84
5146;BME280;2591;48.144;15.152;2023-04-21T07:29:17;75340.25;;;-144.65;76.43
5146;BME280;2591;48.144;15.152;2023-04-21T07:31:45;75344.34;;;-144.65;76.16
5146;BME280;2591;48.144;15.152;2023-04-21T07:34:13;75323.94;;;-144.65;76.99
5146;BME280;2591;48.144;15.152;2023-04-21T07:36:41;75309.69;;;-144.65;75.18
5146;BME280;2591;48.144;15.152;2023-04-21T07:39:09;75307.66;;;-144.65;74.69
5146;BME280;2591;48.144;15.152;2023-04-21T07:41:37;75291.34;;;-144.65;75.97
5146;BME280;2591;48.144;15.152;2023-04-21T07:44:06;75283.19;;;-144.65;74.68
5146;BME280;2591;48.144;15.152;2023-04-21T07:46:34;75266.88;;;-144.65;74.76
5146;BME280;2591;48.144;15.152;2023-04-21T07:49:02;75262.81;;;-144.65;75.26
5146;BME280;2591;48.144;15.152;2023-04-21T07:51:30;75250.56;;;-144.65;73.70
5146;BME280;2591;48.144;15.152;2023-04-21T07:53:58;75232.22;;;-144.65;73.77
5146;BME280;2591;48.144;15.152;2023-04-21T07:56:26;75234.28;;;-144.65;73.92
5146;BME280;2591;48.144;15.152;2023-04-21T07:58:54;75209.81;;;-144.65;72.60
5146;BME280;2591;48.144;15.152;2023-04-21T08:01:23;75207.78;;;-144.65;71.40
5146;BME280;2591;48.144;15.152;2023-04-21T08:03:51;75205.72;;;-144.65;71.27
5146;BME280;2591;48.144;15.152;2023-04-21T08:06:19;75197.56;;;-144.65;70.67
5146;BME280;2591;48.144;15.152;2023-04-21T08:08:47;75195.53;;;-144.65;70.84
5146;BME280;2591;48.144;15.152;2023-04-21T08:11:15;75179.25;;;-144.65;69.41
5146;BME280;2591;48.144;15.152;2023-04-21T08:13:43;75169.03;;;-144.65;70.47
5146;BME280;2591;48.144;15.152;2023-04-21T08:16:11;75154.78;;;-144.65;69.92
5146;BME280;2591;48.144;15.152;2023-04-21T08:18:41;75134.41;;;-144.65;70.60
5146;BME280;2591;48.144;15.152;2023-04-21T08:21:08;75132.34;;;-144.65;69.90
5146;BME280;2591;48.144;15.152;2023-04-21T08:23:36;75126.25;;;-144.65;71.59
5146;BME280;2591;48.144;15.152;2023-04-21T08:26:04;75081.41;;;-144.65;69.97
5146;BME280;2591;48.144;15.152;2023-04-21T08:28:32;75058.97;;;-144.65;67.86
5146;BME280;2591;48.144;15.152;2023-04-21T08:31:00;75046.75;;;-144.65;68.19
5146;BME280;2591;48.144;15.152;2023-04-21T08:33:28;75020.25;;;-144.65;68.31
5146;BME280;2591;48.144;15.152;2023-04-21T08:35:58;75028.41;;;-144.65;68.43
5146;BME280;2591;48.144;15.152;2023-04-21T08:38:36;75006.00;;;-144.65;68.61
5146;BME280;2591;48.144;15.152;2023-04-21T08:41:04;74981.53;;;-144.65;67.17
5146;BME280;2591;48.144;15.152;2023-04-21T08:43:32;74985.59;;;-144.65;66.60
5146;BME280;2591;48.144;15.152;2023-04-21T08:46:02;74955.03;;;-144.65;63.48
5146;BME280;2591;48.144;15.152;2023-04-21T08:48:34;75001.91;;;-144.65;64.79
5146;BME280;2591;48.144;15.152;2023-04-21T08:51:06;74985.59;;;-144.65;65.04
5146;BME280;2591;48.144;15.152;2023-04-21T08:53:35;74965.22;;;-144.65;64.62
5146;BME280;2591;48.144;15.152;2023-04-21T08:56:03;74944.84;;;-144.65;64.35
5146;BME280;2591;48.144;15.152;2023-04-21T08:58:34;74910.19;;;-144.65;62.72
5146;BME280;2591;48.144;15.152;2023-04-21T09:01:02;74914.28;;;-144.65;61.38
5146;BME280;2591;48.144;15.152;2023-04-21T09:03:30;74936.69;;;-144.65;63.72
5146;BME280;2591;48.144;15.152;2023-04-21T09:05:59;74904.09;;;-144.65;61.66
5146;BME280;2591;48.144;15.152;2023-04-21T09:08:29;74902.03;;;-144.65;61.49
5146;BME280;2591;48.144;15.152;2023-04-21T09:10:58;74904.09;;;-144.65;60.72
5146;BME280;2591;48.144;15.152;2023-04-21T09:13:31;74920.38;;;-144.65;61.72
5146;BME280;2591;48.144;15.152;2023-04-21T09:16:00;74871.47;;;-144.65;61.03
5146;BME280;2591;48.144;15.152;2023-04-21T09:18:31;74824.59;;;-144.65;59.37
5146;BME280;2591;48.144;15.152;2023-04-21T09:21:06;74814.41;;;-144.65;58.52
5146;BME280;2591;48.144;15.152;2023-04-21T09:23:41;74836.81;;;-144.65;60.04
5146;BME280;2591;48.144;15.152;2023-04-21T09:26:09;74798.09;;;-144.65;58.85
5146;BME280;2591;48.144;15.152;2023-04-21T09:28:40;74794.03;;;-144.65;59.00
5146;BME280;2591;48.144;15.152;2023-04-21T09:31:13;74720.66;;;-144.65;58.63
5146;BME280;2591;48.144;15.152;2023-04-21T09:33:47;74739.00;;;-144.65;57.50
5146;BME280;2591;48.144;15.152;2023-04-21T09:36:19;74775.69;;;-144.65;57.77
5146;BME280;2591;48.144;15.152;2023-04-21T09:38:59;74816.44;;;-144.65;57.60
5146;BME280;2591;48.144;15.152;2023-04-21T09:41:32;74847.00;;;-144.65;57.61
5146;BME280;2591;48.144;15.152;2023-04-21T09:44:00;74830.72;;;-144.65;56.85
5146;BME280;2591;48.144;15.152;2023-04-21T09:46:32;74812.38;;;-144.65;57.49
5146;BME280;2591;48.144;15.152;2023-04-21T09:49:01;74830.72;;;-144.65;59.14
5146;BME280;2591;48.144;15.152;2023-04-21T09:51:29;74749.19;;;-144.65;55.77
5146;BME280;2591;48.144;15.152;2023-04-21T09:54:20;74741.03;;;-144.65;56.06
5146;BME280;2591;48.144;15.152;2023-04-21T09:56:52;74732.88;;;-144.65;55.18
5146;BME280;2591;48.144;15.152;2023-04-21T09:59:25;74700.28;;;-144.65;53.91
5146;BME280;2591;48.144;15.152;2023-04-21T10:01:54;74657.47;;;-144.65;54.89
5146;BME280;2591;48.144;15.152;2023-04-21T10:04:24;74571.91;;;-144.65;52.17
5146;BME280;2591;48.144;15.152;2023-04-21T10:06:53;74588.19;;;-144.65;49.81
5146;BME280;2591;48.144;15.152;2023-04-21T10:09:24;74653.41;;;-144.65;50.88
5146;BME280;2591;48.144;15.152;2023-04-21T10:11:54;74671.75;;;-144.65;51.60
5146;BME280;2591;48.144;15.152;2023-04-21T10:14:24;74683.97;;;-144.65;51.97
5146;BME280;2591;48.144;15.152;2023-04-21T10:16:55;74663.59;;;-144.65;50.54
5146;BME280;2591;48.144;15.152;2023-04-21T10:19:24;74610.63;;;-144.65;49.59
5146;BME280;2591;48.144;15.152;2023-04-21T10:21:54;74508.72;;;-144.65;47.15
5146;BME280;2591;48.144;15.152;2023-04-21T10:24:27;74512.78;;;-144.65;48.05
5146;BME280;2591;48.144;15.152;2023-04-21T10:26:56;74520.94;;;-144.65;48.18
5146;BME280;2591;48.144;15.152;2023-04-21T10:29:28;74463.88;;;-144.65;46.27
5146;BME280;2591;48.144;15.152;2023-04-21T10:32:09;74390.53;;;-144.65;46.23
5146;BME280;2591;48.144;15.152;2023-04-21T10:34:37;74337.53;;;-144.65;46.63
5146;BME280;2591;48.144;15.152;2023-04-21T10:37:10;74292.72;;;-144.65;43.56
5146;BME280;2591;48.144;15.152;2023-04-21T10:39:53;74280.50;;;-144.65;46.04
5146;BME280;2591;48.144;15.152;2023-04-21T10:42:26;74239.72;;;-144.65;43.82
5146;BME280;2591;48.144;15.152;2023-04-21T10:45:09;74243.81;;;-144.65;44.09
5146;BME280;2591;48.144;15.152;2023-04-21T10:47:40;74260.09;;;-144.65;44.06
5146;BME280;2591;48.144;15.152;2023-04-21T10:50:22;74235.66;;;-144.65;42.84
5146;BME280;2591;48.144;15.152;2023-04-21T10:52:54;74309.00;;;-144.65;42.60
5146;BME280;2591;48.144;15.152;2023-04-21T10:55:27;74280.50;;;-144.65;44.42
5146;BME280;2591;48.144;15.152;2023-04-21T10:57:55;74243.81;;;-144.65;43.00
5146;BME280;2591;48.144;15.152;2023-04-21T11:00:24;74239.72;;;-144.65;43.34
5146;BME280;2591;48.144;15.152;2023-04-21T11:02:58;74207.13;;;-144.65;41.75
5146;BME280;2591;48.144;15.152;2023-04-21T11:05:32;74219.34;;;-144.65;41.79
5146;BME280;2591;48.144;15.152;2023-04-21T11:08:10;74205.09;;;-144.65;42.00
5146;BME280;2591;48.144;15.152;2023-04-21T11:10:52;74223.44;;;-144.65;40.17
5146;BME280;2591;48.144;15.152;2023-04-21T11:13:21;74300.88;;;-144.65;41.91
5146;BME280;2591;48.144;15.152;2023-04-21T11:16:00;74306.97;;;-144.65;42.27
5146;BME280;2591;48.144;15.152;2023-04-21T11:18:38;74274.38;;;-144.65;41.84
5146;BME280;2591;48.144;15.152;2023-04-21T11:21:11;74231.59;;;-144.65;41.21
5146;BME280;2591;48.144;15.152;2023-04-21T11:23:47;74219.34;;;-144.65;41.09
5146;BME280;2591;48.144;15.152;2023-04-21T11:26:18;74223.44;;;-144.65;40.75
5146;BME280;2591;48.144;15.152;2023-04-21T11:28:59;74227.50;;;-144.65;40.35
5146;BME280;2591;48.144;15.152;2023-04-21T11:31:27;74201.00;;;-144.65;39.54
5146;BME280;2591;48.144;15.152;2023-04-21T11:33:55;74186.75;;;-144.65;39.09
5146;BME280;2591;48.144;15.152;2023-04-21T11:36:25;74178.59;;;-144.65;39.73
5146;BME280;2591;48.144;15.152;2023-04-21T11:38:53;74182.69;;;-144.65;40.76
5146;BME280;2591;48.144;15.152;2023-04-21T11:41:22;74176.56;;;-144.65;40.81
5146;BME280;2591;48.144;15.152;2023-04-21T11:43:51;74152.13;;;-144.65;40.37
5146;BME280;2591;48.144;15.152;2023-04-21T11:46:22;74131.72;;;-144.65;40.35
5146;BME280;2591;48.144;15.152;2023-04-21T11:48:57;74101.16;;;-144.65;38.04
5146;BME280;2591;48.144;15.152;2023-04-21T11:51:26;74121.56;;;-144.65;38.42
5146;BME280;2591;48.144;15.152;2023-04-21T11:53:54;74117.47;;;-144.65;39.37
5146;BME280;2591;48.144;15.152;2023-04-21T11:56:23;74127.66;;;-144.65;40.11
5146;BME280;2591;48.144;15.152;2023-04-21T11:58:52;74086.91;;;-144.65;39.38
5146;BME280;2591;48.144;15.152;2023-04-21T12:01:20;74066.53;;;-144.65;38.66
5146;BME280;2591;48.144;15.152;2023-04-21T12:03:52;74078.75;;;-144.65;38.71
5146;BME280;2591;48.144;15.152;2023-04-21T12:06:22;74080.78;;;-144.65;37.99
5146;BME280;2591;48.144;15.152;2023-04-21T12:08:59;74111.34;;;-144.65;38.46
5146;BME280;2591;48.144;15.152;2023-04-21T12:11:30;74127.66;;;-144.65;39.23
5146;BME280;2591;48.144;15.152;2023-04-21T12:13:58;74095.06;;;-144.65;38.22
5146;BME280;2591;48.144;15.152;2023-04-21T12:16:27;74127.66;;;-144.65;39.25
5146;BME280;2591;48.144;15.152;2023-04-21T12:18:55;74101.16;;;-144.65;38.79
5146;BME280;2591;48.144;15.152;2023-04-21T12:21:26;74080.78;;;-144.65;37.49
5146;BME280;2591;48.144;15.152;2023-04-21T12:23:55;74125.63;;;-144.65;37.85
5146;BME280;2591;48.144;15.152;2023-04-21T12:26:23;74117.47;;;-144.65;38.48
5146;BME280;2591;48.144;15.152;2023-04-21T12:28:53;74101.16;;;-144.65;38.24
5146;BME280;2591;48.144;15.152;2023-04-21T12:31:21;74109.31;;;-144.65;38.62
5146;BME280;2591;48.144;15.152;2023-04-21T12:33:49;74097.09;;;-144.65;37.72
5146;BME280;2591;48.144;15.152;2023-04-21T12:36:17;74086.91;;;-144.65;37.59
5146;BME280;2591;48.144;15.152;2023-04-21T12:38:45;74086.91;;;-144.65;37.87
5146;BME280;2591;48.144;15.152;2023-04-21T12:41:12;74088.94;;;-144.65;37.01
5146;BME280;2591;48.144;15.152;2023-04-21T12:43:40;74101.16;;;-144.65;38.10
5146;BME280;2591;48.144;15.152;2023-04-21T12:46:09;74097.09;;;-144.65;36.92
5146;BME280;2591;48.144;15.152;2023-04-21T12:48:37;74093.03;;;-144.65;37.43
5146;BME280;2591;48.144;15.152;2023-04-21T12:51:05;74121.56;;;-144.65;39.22
5146;BME280;2591;48.144;15.152;2023-04-21T12:53:33;74105.25;;;-144.65;38.24
5146;BME280;2591;48.144;15.152;2023-04-21T12:56:02;74097.09;;;-144.65;38.66